sensor_id;sensor_type;location;lat;lon;timestamp;P1;durP1;ratioP1;P2;durP2;ratioP2
6135;SDS011;24008;42.664;23.372;2023-02-01T00:00:56;11.03;;;6.77;;
6135;SDS011;24008;42.664;23.372;2023-02-01T00:03:23;10.23;;;7.30;;
6135;SDS011;24008;42.664;23.372;2023-02-01T00:05:54;11.20;;;7.13;;
6135;SDS011;24008;42.664;23.372;2023-02-01T00:08:23;10.47;;;7.50;;
6135;SDS011;24008;42.664;23.372;2023-02-01T00:10:57;11.00;;;7.77;;
6135;SDS011;24008;42.664;23.372;2023-02-01T00:13:26;11.57;;;7.43;;
6135;SDS011;24008;42.664;23.372;2023-02-01T00:15:54;11.43;;;7.07;;
6135;SDS011;24008;42.664;23.372;2023-02-01T00:18:21;12.83;;;7.53;;
6135;SDS011;24008;42.664;23.372;2023-02-01T00:20:48;11.50;;;7.47;;
6135;SDS011;24008;42.664;23.372;2023-02-01T00:23:15;11.90;;;7.50;;
6135;SDS011;24008;42.664;23.372;2023-02-01T00:25:41;10.47;;;7.33;;
6135;SDS011;24008;42.664;23.372;2023-02-01T00:28:08;10.20;;;7.03;;
6135;SDS011;24008;42.664;23.372;2023-02-01T00:30:36;9.77;;;6.93;;
6135;SDS011;24008;42.664;23.372;2023-02-01T00:33:03;10.87;;;7.07;;
6135;SDS011;24008;42.664;23.372;2023-02-01T00:35:30;11.67;;;7.87;;
6135;SDS011;24008;42.664;23.372;2023-02-01T00:37:56;10.53;;;7.53;;
6135;SDS011;24008;42.664;23.372;2023-02-01T00:40:24;12.47;;;7.70;;
6135;SDS011;24008;42.664;23.372;2023-02-01T00:42:51;9.63;;;7.40;;
6135;SDS011;24008;42.664;23.372;2023-02-01T00:45:19;9.47;;;6.83;;
6135;SDS011;24008;42.664;23.372;2023-02-01T00:47:47;10.50;;;6.27;;
6135;SDS011;24008;42.664;23.372;2023-02-01T00:50:14;9.23;;;6.73;;
6135;SDS011;24008;42.664;23.372;2023-02-01T00:52:41;9.13;;;6.57;;
6135;SDS011;24008;42.664;23.372;2023-02-01T00:55:08;7.73;;;5.83;;
6135;SDS011;24008;42.664;23.372;2023-02-01T00:57:35;9.00;;;5.77;;
6135;SDS011;24008;42.664;23.372;2023-02-01T01:00:05;8.57;;;6.80;;
6135;SDS011;24008;42.664;23.372;2023-02-01T01:02:33;9.77;;;6.17;;
6135;SDS011;24008;42.664;23.372;2023-02-01T01:05:01;8.60;;;6.33;;
6135;SDS011;24008;42.664;23.372;2023-02-01T01:07:28;10.77;;;6.10;;
6135;SDS011;24008;42.664;23.372;2023-02-01T01:09:54;7.43;;;5.63;;
6135;SDS011;24008;42.664;23.372;2023-02-01T01:12:21;15.27;;;6.27;;
6135;SDS011;24008;42.664;23.372;2023-02-01T01:14:48;8.63;;;5.67;;
6135;SDS011;24008;42.664;23.372;2023-02-01T01:17:15;9.23;;;5.77;;
6135;SDS011;24008;42.664;23.372;2023-02-01T01:19:42;6.77;;;5.67;;
6135;SDS011;24008;42.664;23.372;2023-02-01T01:22:11;10.17;;;5.30;;
6135;SDS011;24008;42.664;23.372;2023-02-01T01:24:37;6.07;;;5.10;;
6135;SDS011;24008;42.664;23.372;2023-02-01T01:27:04;7.63;;;5.37;;
6135;SDS011;24008;42.664;23.372;2023-02-01T01:29:31;8.90;;;5.10;;
6135;SDS011;24008;42.664;23.372;2023-02-01T01:31:58;6.23;;;4.87;;
6135;SDS011;24008;42.664;23.372;2023-02-01T01:34:24;10.23;;;5.13;;
6135;SDS011;24008;42.664;23.372;2023-02-01T01:36:51;8.13;;;5.27;;
6135;SDS011;24008;42.664;23.372;2023-02-01T01:39:19;9.20;;;5.40;;
6135;SDS011;24008;42.664;23.372;2023-02-01T01:41:46;8.17;;;5.20;;
6135;SDS011;24008;42.664;23.372;2023-02-01T01:47:17;7.37;;;4.53;;
6135;SDS011;24008;42.664;23.372;2023-02-01T01:49:44;7.17;;;4.67;;
6135;SDS011;24008;42.664;23.372;2023-02-01T01:52:11;5.43;;;4.50;;
6135;SDS011;24008;42.664;23.372;2023-02-01T01:54:40;6.93;;;4.67;;
6135;SDS011;24008;42.664;23.372;2023-02-01T01:57:11;6.97;;;5.07;;
6135;SDS011;24008;42.664;23.372;2023-02-01T01:59:46;6.37;;;4.57;;
6135;SDS011;24008;42.664;23.372;2023-02-01T02:02:16;9.07;;;5.27;;
6135;SDS011;24008;42.664;23.372;2023-02-01T02:04:43;6.27;;;4.70;;
6135;SDS011;24008;42.664;23.372;2023-02-01T02:07:11;7.40;;;5.10;;
6135;SDS011;24008;42.664;23.372;2023-02-01T02:09:43;7.20;;;4.67;;
6135;SDS011;24008;42.664;23.372;2023-02-01T02:12:10;5.93;;;4.30;;
6135;SDS011;24008;42.664;23.372;2023-02-01T02:14:37;10.27;;;4.70;;
6135;SDS011;24008;42.664;23.372;2023-02-01T02:17:11;5.47;;;4.37;;
6135;SDS011;24008;42.664;23.372;2023-02-01T02:25:56;7.80;;;4.90;;
6135;SDS011;24008;42.664;23.372;2023-02-01T02:28:48;6.93;;;4.93;;
6135;SDS011;24008;42.664;23.372;2023-02-01T02:34:36;6.10;;;4.13;;
6135;SDS011;24008;42.664;23.372;2023-02-01T02:37:09;6.73;;;4.23;;
6135;SDS011;24008;42.664;23.372;2023-02-01T02:39:44;7.50;;;4.17;;
6135;SDS011;24008;42.664;23.372;2023-02-01T02:42:21;5.80;;;4.40;;
6135;SDS011;24008;42.664;23.372;2023-02-01T02:45:14;10.37;;;4.93;;
6135;SDS011;24008;42.664;23.372;2023-02-01T02:48:05;7.13;;;4.60;;
6135;SDS011;24008;42.664;23.372;2023-02-01T02:50:40;8.00;;;4.37;;
6135;SDS011;24008;42.664;23.372;2023-02-01T02:53:29;6.47;;;4.60;;
6135;SDS011;24008;42.664;23.372;2023-02-01T02:56:16;7.50;;;4.80;;
6135;SDS011;24008;42.664;23.372;2023-02-01T02:59:02;5.60;;;4.70;;
6135;SDS011;24008;42.664;23.372;2023-02-01T03:01:48;9.03;;;5.20;;
6135;SDS011;24008;42.664;23.372;2023-02-01T03:04:33;6.40;;;4.87;;
6135;SDS011;24008;42.664;23.372;2023-02-01T03:07:10;6.40;;;4.50;;
6135;SDS011;24008;42.664;23.372;2023-02-01T03:09:39;6.37;;;4.40;;
6135;SDS011;24008;42.664;23.372;2023-02-01T03:12:11;5.90;;;4.10;;
6135;SDS011;24008;42.664;23.372;2023-02-01T03:14:59;6.30;;;4.20;;
6135;SDS011;24008;42.664;23.372;2023-02-01T03:17:32;7.27;;;4.07;;
6135;SDS011;24008;42.664;23.372;2023-02-01T03:20:04;7.20;;;3.83;;
6135;SDS011;24008;42.664;23.372;2023-02-01T03:22:37;4.70;;;3.70;;
6135;SDS011;24008;42.664;23.372;2023-02-01T03:25:09;5.73;;;3.80;;
6135;SDS011;24008;42.664;23.372;2023-02-01T03:27:40;4.00;;;3.50;;
6135;SDS011;24008;42.664;23.372;2023-02-01T03:30:11;4.77;;;3.73;;
6135;SDS011;24008;42.664;23.372;2023-02-01T03:32:44;8.17;;;3.67;;
6135;SDS011;24008;42.664;23.372;2023-02-01T03:35:26;3.97;;;3.33;;
6135;SDS011;24008;42.664;23.372;2023-02-01T03:38:01;4.83;;;3.60;;
6135;SDS011;24008;42.664;23.372;2023-02-01T03:40:35;6.47;;;3.90;;
6135;SDS011;24008;42.664;23.372;2023-02-01T03:43:04;6.43;;;4.13;;
6135;SDS011;24008;42.664;23.372;2023-02-01T03:45:34;5.90;;;3.50;;
6135;SDS011;24008;42.664;23.372;2023-02-01T03:48:05;5.53;;;3.60;;
6135;SDS011;24008;42.664;23.372;2023-02-01T03:50:35;5.40;;;3.77;;
6135;SDS011;24008;42.664;23.372;2023-02-01T03:53:06;5.70;;;4.00;;
6135;SDS011;24008;42.664;23.372;2023-02-01T03:55:36;5.67;;;3.60;;
6135;SDS011;24008;42.664;23.372;2023-02-01T03:58:06;6.73;;;3.83;;
6135;SDS011;24008;42.664;23.372;2023-02-01T04:00:38;6.33;;;3.30;;
6135;SDS011;24008;42.664;23.372;2023-02-01T04:03:06;7.63;;;3.60;;
6135;SDS011;24008;42.664;23.372;2023-02-01T04:05:33;8.77;;;3.40;;
6135;SDS011;24008;42.664;23.372;2023-02-01T04:08:00;5.73;;;3.50;;
6135;SDS011;24008;42.664;23.372;2023-02-01T04:10:28;6.13;;;3.70;;
6135;SDS011;24008;42.664;23.372;2023-02-01T04:12:55;7.67;;;3.90;;
6135;SDS011;24008;42.664;23.372;2023-02-01T04:15:22;4.63;;;3.67;;
6135;SDS011;24008;42.664;23.372;2023-02-01T04:17:49;6.47;;;3.70;;
6135;SDS011;24008;42.664;23.372;2023-02-01T04:20:16;5.00;;;3.70;;
6135;SDS011;24008;42.664;23.372;2023-02-01T04:22:43;5.23;;;4.20;;
6135;SDS011;24008;42.664;23.372;2023-02-01T04:25:10;4.53;;;3.50;;
6135;SDS011;24008;42.664;23.372;2023-02-01T04:27:38;7.07;;;4.03;;
6135;SDS011;24008;42.664;23.372;2023-02-01T04:30:05;4.57;;;3.77;;
6135;SDS011;24008;42.664;23.372;2023-02-01T04:32:34;6.60;;;4.07;;
6135;SDS011;24008;42.664;23.372;2023-02-01T04:35:01;7.03;;;5.00;;
6135;SDS011;24008;42.664;23.372;2023-02-01T04:37:28;8.03;;;5.00;;
6135;SDS011;24008;42.664;23.372;2023-02-01T04:39:55;6.97;;;4.23;;
6135;SDS011;24008;42.664;23.372;2023-02-01T04:42:22;6.73;;;4.73;;
6135;SDS011;24008;42.664;23.372;2023-02-01T04:44:50;7.00;;;4.37;;
6135;SDS011;24008;42.664;23.372;2023-02-01T04:47:17;5.50;;;4.47;;
6135;SDS011;24008;42.664;23.372;2023-02-01T04:49:43;6.57;;;4.97;;
6135;SDS011;24008;42.664;23.372;2023-02-01T04:52:10;7.63;;;5.00;;
6135;SDS011;24008;42.664;23.372;2023-02-01T04:54:37;10.40;;;5.37;;
6135;SDS011;24008;42.664;23.372;2023-02-01T04:57:04;10.17;;;5.40;;
6135;SDS011;24008;42.664;23.372;2023-02-01T04:59:31;8.77;;;5.23;;
6135;SDS011;24008;42.664;23.372;2023-02-01T05:01:59;6.50;;;5.07;;
6135;SDS011;24008;42.664;23.372;2023-02-01T05:04:25;8.27;;;5.27;;
6135;SDS011;24008;42.664;23.372;2023-02-01T05:06:52;7.93;;;5.80;;
6135;SDS011;24008;42.664;23.372;2023-02-01T05:09:19;7.20;;;4.73;;
6135;SDS011;24008;42.664;23.372;2023-02-01T05:11:47;9.87;;;5.83;;
6135;SDS011;24008;42.664;23.372;2023-02-01T05:14:31;7.17;;;5.00;;
6135;SDS011;24008;42.664;23.372;2023-02-01T05:16:59;9.73;;;5.10;;
6135;SDS011;24008;42.664;23.372;2023-02-01T05:19:26;10.43;;;5.80;;
6135;SDS011;24008;42.664;23.372;2023-02-01T05:21:53;7.57;;;5.57;;
6135;SDS011;24008;42.664;23.372;2023-02-01T05:24:20;10.53;;;5.83;;
6135;SDS011;24008;42.664;23.372;2023-02-01T05:26:46;8.13;;;5.90;;
6135;SDS011;24008;42.664;23.372;2023-02-01T05:29:14;12.93;;;7.30;;
6135;SDS011;24008;42.664;23.372;2023-02-01T05:31:42;8.07;;;5.70;;
6135;SDS011;24008;42.664;23.372;2023-02-01T05:34:12;10.03;;;5.60;;
6135;SDS011;24008;42.664;23.372;2023-02-01T05:36:39;10.17;;;6.07;;
6135;SDS011;24008;42.664;23.372;2023-02-01T05:39:06;10.80;;;6.43;;
6135;SDS011;24008;42.664;23.372;2023-02-01T05:41:36;8.93;;;6.03;;
6135;SDS011;24008;42.664;23.372;2023-02-01T05:44:03;13.60;;;5.80;;
6135;SDS011;24008;42.664;23.372;2023-02-01T05:46:32;8.60;;;5.50;;
6135;SDS011;24008;42.664;23.372;2023-02-01T05:48:59;9.97;;;6.57;;
6135;SDS011;24008;42.664;23.372;2023-02-01T05:51:28;9.97;;;6.13;;
6135;SDS011;24008;42.664;23.372;2023-02-01T05:53:54;10.20;;;6.70;;
6135;SDS011;24008;42.664;23.372;2023-02-01T05:56:21;10.80;;;6.17;;
6135;SDS011;24008;42.664;23.372;2023-02-01T05:58:48;8.67;;;5.87;;
6135;SDS011;24008;42.664;23.372;2023-02-01T06:01:15;11.43;;;6.50;;
6135;SDS011;24008;42.664;23.372;2023-02-01T06:03:42;10.53;;;7.03;;
6135;SDS011;24008;42.664;23.372;2023-02-01T06:06:09;10.23;;;5.27;;
6135;SDS011;24008;42.664;23.372;2023-02-01T06:08:37;9.30;;;5.40;;
6135;SDS011;24008;42.664;23.372;2023-02-01T06:11:05;7.97;;;5.20;;
6135;SDS011;24008;42.664;23.372;2023-02-01T06:13:32;7.80;;;5.53;;
6135;SDS011;24008;42.664;23.372;2023-02-01T06:16:00;12.40;;;5.93;;
6135;SDS011;24008;42.664;23.372;2023-02-01T06:18:28;6.80;;;4.90;;
6135;SDS011;24008;42.664;23.372;2023-02-01T06:20:55;10.63;;;5.20;;
6135;SDS011;24008;42.664;23.372;2023-02-01T06:23:25;7.30;;;4.87;;
6135;SDS011;24008;42.664;23.372;2023-02-01T06:25:57;7.67;;;4.80;;
6135;SDS011;24008;42.664;23.372;2023-02-01T06:28:25;7.87;;;5.80;;
6135;SDS011;24008;42.664;23.372;2023-02-01T06:30:52;9.03;;;4.90;;
6135;SDS011;24008;42.664;23.372;2023-02-01T06:33:19;6.73;;;4.70;;
6135;SDS011;24008;42.664;23.372;2023-02-01T06:35:46;7.97;;;5.57;;
6135;SDS011;24008;42.664;23.372;2023-02-01T06:38:13;8.77;;;5.37;;
6135;SDS011;24008;42.664;23.372;2023-02-01T06:40:40;6.77;;;5.00;;
6135;SDS011;24008;42.664;23.372;2023-02-01T06:43:08;8.60;;;4.47;;
6135;SDS011;24008;42.664;23.372;2023-02-01T06:45:35;9.67;;;4.70;;
6135;SDS011;24008;42.664;23.372;2023-02-01T06:48:02;11.57;;;4.83;;
6135;SDS011;24008;42.664;23.372;2023-02-01T06:50:29;7.20;;;4.70;;
6135;SDS011;24008;42.664;23.372;2023-02-01T06:52:56;11.30;;;4.90;;
6135;SDS011;24008;42.664;23.372;2023-02-01T06:55:23;9.23;;;5.70;;
6135;SDS011;24008;42.664;23.372;2023-02-01T06:57:52;10.23;;;5.40;;
6135;SDS011;24008;42.664;23.372;2023-02-01T07:00:21;9.27;;;5.33;;
6135;SDS011;24008;42.664;23.372;2023-02-01T07:02:48;8.53;;;5.53;;
6135;SDS011;24008;42.664;23.372;2023-02-01T07:05:16;8.03;;;4.93;;
6135;SDS011;24008;42.664;23.372;2023-02-01T07:07:43;6.40;;;4.73;;
6135;SDS011;24008;42.664;23.372;2023-02-01T07:10:10;6.60;;;4.73;;
6135;SDS011;24008;42.664;23.372;2023-02-01T07:12:37;7.87;;;4.80;;
6135;SDS011;24008;42.664;23.372;2023-02-01T07:15:04;6.83;;;4.50;;
6135;SDS011;24008;42.664;23.372;2023-02-01T07:17:33;11.40;;;4.83;;
6135;SDS011;24008;42.664;23.372;2023-02-01T07:20:00;6.53;;;3.90;;
6135;SDS011;24008;42.664;23.372;2023-02-01T07:22:27;9.63;;;4.23;;
6135;SDS011;24008;42.664;23.372;2023-02-01T07:24:54;3.80;;;2.93;;
6135;SDS011;24008;42.664;23.372;2023-02-01T07:27:21;9.33;;;4.50;;
6135;SDS011;24008;42.664;23.372;2023-02-01T07:29:50;8.03;;;4.37;;
6135;SDS011;24008;42.664;23.372;2023-02-01T07:32:16;7.33;;;4.53;;
6135;SDS011;24008;42.664;23.372;2023-02-01T07:34:45;7.13;;;4.07;;
6135;SDS011;24008;42.664;23.372;2023-02-01T07:37:11;6.43;;;4.80;;
6135;SDS011;24008;42.664;23.372;2023-02-01T07:39:38;6.73;;;4.80;;
6135;SDS011;24008;42.664;23.372;2023-02-01T07:42:05;5.37;;;3.70;;
6135;SDS011;24008;42.664;23.372;2023-02-01T07:44:32;5.37;;;3.63;;
6135;SDS011;24008;42.664;23.372;2023-02-01T07:46:59;8.03;;;4.03;;
6135;SDS011;24008;42.664;23.372;2023-02-01T07:49:26;7.90;;;4.27;;
6135;SDS011;24008;42.664;23.372;2023-02-01T07:51:54;7.33;;;4.43;;
6135;SDS011;24008;42.664;23.372;2023-02-01T07:54:21;8.27;;;4.27;;
6135;SDS011;24008;42.664;23.372;2023-02-01T07:56:47;7.37;;;4.43;;
6135;SDS011;24008;42.664;23.372;2023-02-01T07:59:14;7.83;;;4.67;;
6135;SDS011;24008;42.664;23.372;2023-02-01T08:01:41;8.47;;;4.40;;
6135;SDS011;24008;42.664;23.372;2023-02-01T08:04:08;10.00;;;4.27;;
6135;SDS011;24008;42.664;23.372;2023-02-01T08:06:37;13.27;;;4.50;;
6135;SDS011;24008;42.664;23.372;2023-02-01T08:09:06;6.90;;;4.50;;
6135;SDS011;24008;42.664;23.372;2023-02-01T08:11:35;8.17;;;4.10;;
6135;SDS011;24008;42.664;23.372;2023-02-01T08:14:03;10.40;;;4.70;;
6135;SDS011;24008;42.664;23.372;2023-02-01T08:16:31;8.40;;;4.80;;
6135;SDS011;24008;42.664;23.372;2023-02-01T08:19:00;6.63;;;4.70;;
6135;SDS011;24008;42.664;23.372;2023-02-01T08:21:27;8.60;;;5.60;;
6135;SDS011;24008;42.664;23.372;2023-02-01T08:24:01;8.67;;;4.07;;
6135;SDS011;24008;42.664;23.372;2023-02-01T08:26:31;7.63;;;4.13;;
6135;SDS011;24008;42.664;23.372;2023-02-01T08:28:58;4.63;;;3.63;;
6135;SDS011;24008;42.664;23.372;2023-02-01T08:31:29;7.00;;;4.30;;
6135;SDS011;24008;42.664;23.372;2023-02-01T08:33:57;8.70;;;3.57;;
6135;SDS011;24008;42.664;23.372;2023-02-01T08:36:25;8.20;;;3.87;;
6135;SDS011;24008;42.664;23.372;2023-02-01T08:38:56;4.57;;;3.90;;
6135;SDS011;24008;42.664;23.372;2023-02-01T08:41:24;9.00;;;3.93;;
6135;SDS011;24008;42.664;23.372;2023-02-01T08:43:53;5.87;;;3.63;;
6135;SDS011;24008;42.664;23.372;2023-02-01T08:46:21;5.97;;;4.00;;
6135;SDS011;24008;42.664;23.372;2023-02-01T08:48:48;5.63;;;3.43;;
6135;SDS011;24008;42.664;23.372;2023-02-01T08:51:16;5.37;;;3.40;;
6135;SDS011;24008;42.664;23.372;2023-02-01T08:53:45;3.73;;;3.03;;
6135;SDS011;24008;42.664;23.372;2023-02-01T08:56:13;6.10;;;4.03;;
6135;SDS011;24008;42.664;23.372;2023-02-01T08:58:42;8.47;;;4.30;;
6135;SDS011;24008;42.664;23.372;2023-02-01T09:01:11;5.80;;;3.50;;
6135;SDS011;24008;42.664;23.372;2023-02-01T09:03:39;5.67;;;2.97;;
6135;SDS011;24008;42.664;23.372;2023-02-01T09:06:07;4.90;;;2.83;;
6135;SDS011;24008;42.664;23.372;2023-02-01T09:08:36;3.50;;;2.40;;
6135;SDS011;24008;42.664;23.372;2023-02-01T09:11:04;5.37;;;2.93;;
6135;SDS011;24008;42.664;23.372;2023-02-01T09:13:50;8.90;;;3.30;;
6135;SDS011;24008;42.664;23.372;2023-02-01T09:16:31;5.93;;;3.03;;
6135;SDS011;24008;42.664;23.372;2023-02-01T09:18:57;5.03;;;3.03;;
6135;SDS011;24008;42.664;23.372;2023-02-01T09:21:24;6.67;;;3.50;;
6135;SDS011;24008;42.664;23.372;2023-02-01T09:23:51;9.23;;;3.53;;
6135;SDS011;24008;42.664;23.372;2023-02-01T09:26:18;5.83;;;3.00;;
6135;SDS011;24008;42.664;23.372;2023-02-01T09:28:44;9.30;;;4.10;;
6135;SDS011;24008;42.664;23.372;2023-02-01T09:31:11;3.50;;;2.67;;
6135;SDS011;24008;42.664;23.372;2023-02-01T09:33:39;9.07;;;3.40;;
6135;SDS011;24008;42.664;23.372;2023-02-01T09:36:06;3.40;;;2.47;;
6135;SDS011;24008;42.664;23.372;2023-02-01T09:38:33;5.10;;;2.80;;
6135;SDS011;24008;42.664;23.372;2023-02-01T09:41:00;4.47;;;2.87;;
6135;SDS011;24008;42.664;23.372;2023-02-01T09:43:31;4.67;;;3.13;;
6135;SDS011;24008;42.664;23.372;2023-02-01T09:46:19;5.47;;;3.20;;
6135;SDS011;24008;42.664;23.372;2023-02-01T09:48:52;5.77;;;2.80;;
6135;SDS011;24008;42.664;23.372;2023-02-01T09:51:20;4.43;;;3.20;;
6135;SDS011;24008;42.664;23.372;2023-02-01T09:53:55;5.87;;;3.17;;
6135;SDS011;24008;42.664;23.372;2023-02-01T09:56:29;6.33;;;3.50;;
6135;SDS011;24008;42.664;23.372;2023-02-01T09:59:02;4.43;;;3.03;;
6135;SDS011;24008;42.664;23.372;2023-02-01T10:01:34;5.07;;;2.73;;
6135;SDS011;24008;42.664;23.372;2023-02-01T10:04:05;6.30;;;3.13;;
6135;SDS011;24008;42.664;23.372;2023-02-01T10:06:41;4.23;;;2.97;;
6135;SDS011;24008;42.664;23.372;2023-02-01T10:09:23;4.57;;;2.73;;
6135;SDS011;24008;42.664;23.372;2023-02-01T10:12:16;7.30;;;2.70;;
6135;SDS011;24008;42.664;23.372;2023-02-01T10:15:01;4.60;;;2.53;;
6135;SDS011;24008;42.664;23.372;2023-02-01T10:17:41;5.13;;;3.20;;
6135;SDS011;24008;42.664;23.372;2023-02-01T10:20:20;4.37;;;2.70;;
6135;SDS011;24008;42.664;23.372;2023-02-01T10:22:55;5.87;;;2.80;;
6135;SDS011;24008;42.664;23.372;2023-02-01T10:25:36;4.47;;;2.80;;
6135;SDS011;24008;42.664;23.372;2023-02-01T10:28:08;5.67;;;2.57;;
6135;SDS011;24008;42.664;23.372;2023-02-01T10:30:42;4.20;;;2.97;;
6135;SDS011;24008;42.664;23.372;2023-02-01T10:33:15;3.77;;;2.40;;
6135;SDS011;24008;42.664;23.372;2023-02-01T10:35:46;3.60;;;2.40;;
6135;SDS011;24008;42.664;23.372;2023-02-01T10:38:17;5.23;;;2.93;;
6135;SDS011;24008;42.664;23.372;2023-02-01T10:40:51;4.07;;;2.40;;
6135;SDS011;24008;42.664;23.372;2023-02-01T10:43:19;5.87;;;2.77;;
6135;SDS011;24008;42.664;23.372;2023-02-01T10:45:46;5.17;;;3.50;;
6135;SDS011;24008;42.664;23.372;2023-02-01T10:48:13;4.77;;;2.90;;
6135;SDS011;24008;42.664;23.372;2023-02-01T10:50:42;11.33;;;3.10;;
6135;SDS011;24008;42.664;23.372;2023-02-01T10:53:16;4.00;;;2.37;;
6135;SDS011;24008;42.664;23.372;2023-02-01T10:55:48;4.03;;;2.50;;
6135;SDS011;24008;42.664;23.372;2023-02-01T10:58:16;3.80;;;2.60;;
6135;SDS011;24008;42.664;23.372;2023-02-01T11:00:46;6.40;;;2.80;;
6135;SDS011;24008;42.664;23.372;2023-02-01T11:03:22;6.53;;;2.93;;
6135;SDS011;24008;42.664;23.372;2023-02-01T11:06:01;5.53;;;2.70;;
6135;SDS011;24008;42.664;23.372;2023-02-01T11:08:41;6.30;;;2.40;;
6135;SDS011;24008;42.664;23.372;2023-02-01T11:11:09;4.10;;;2.50;;
6135;SDS011;24008;42.664;23.372;2023-02-01T11:13:37;5.33;;;2.77;;
6135;SDS011;24008;42.664;23.372;2023-02-01T11:16:05;4.67;;;2.60;;
6135;SDS011;24008;42.664;23.372;2023-02-01T11:18:35;5.10;;;2.80;;
6135;SDS011;24008;42.664;23.372;2023-02-01T11:21:04;5.50;;;3.07;;
6135;SDS011;24008;42.664;23.372;2023-02-01T11:23:33;4.87;;;2.73;;
6135;SDS011;24008;42.664;23.372;2023-02-01T11:26:07;6.43;;;3.20;;
6135;SDS011;24008;42.664;23.372;2023-02-01T11:28:38;5.53;;;2.80;;
6135;SDS011;24008;42.664;23.372;2023-02-01T11:31:08;5.30;;;1.97;;
6135;SDS011;24008;42.664;23.372;2023-02-01T11:33:37;5.73;;;2.50;;
6135;SDS011;24008;42.664;23.372;2023-02-01T11:36:12;4.53;;;2.23;;
6135;SDS011;24008;42.664;23.372;2023-02-01T11:38:45;4.03;;;2.30;;
6135;SDS011;24008;42.664;23.372;2023-02-01T11:41:14;3.23;;;1.93;;
6135;SDS011;24008;42.664;23.372;2023-02-01T11:43:51;2.80;;;2.20;;
6135;SDS011;24008;42.664;23.372;2023-02-01T11:46:21;5.27;;;1.90;;
6135;SDS011;24008;42.664;23.372;2023-02-01T11:48:52;4.87;;;2.70;;
6135;SDS011;24008;42.664;23.372;2023-02-01T11:51:24;6.50;;;2.50;;
6135;SDS011;24008;42.664;23.372;2023-02-01T11:54:02;4.13;;;2.20;;
6135;SDS011;24008;42.664;23.372;2023-02-01T11:56:37;5.93;;;2.30;;
6135;SDS011;24008;42.664;23.372;2023-02-01T11:59:11;3.73;;;2.07;;
6135;SDS011;24008;42.664;23.372;2023-02-01T12:01:53;3.33;;;1.70;;
6135;SDS011;24008;42.664;23.372;2023-02-01T12:04:45;3.40;;;1.80;;
6135;SDS011;24008;42.664;23.372;2023-02-01T12:07:28;2.70;;;1.90;;
6135;SDS011;24008;42.664;23.372;2023-02-01T12:10:09;3.57;;;1.90;;
6135;SDS011;24008;42.664;23.372;2023-02-01T12:12:51;3.90;;;2.20;;
6135;SDS011;24008;42.664;23.372;2023-02-01T12:15:29;2.40;;;1.70;;
6135;SDS011;24008;42.664;23.372;2023-02-01T12:21:26;4.00;;;2.03;;
6135;SDS011;24008;42.664;23.372;2023-02-01T12:24:06;5.07;;;2.43;;
6135;SDS011;24008;42.664;23.372;2023-02-01T12:26:48;3.17;;;2.13;;
6135;SDS011;24008;42.664;23.372;2023-02-01T12:29:36;4.10;;;2.30;;
6135;SDS011;24008;42.664;23.372;2023-02-01T12:32:25;4.17;;;2.23;;
6135;SDS011;24008;42.664;23.372;2023-02-01T12:35:14;3.90;;;2.57;;
6135;SDS011;24008;42.664;23.372;2023-02-01T12:38:05;3.67;;;2.50;;
6135;SDS011;24008;42.664;23.372;2023-02-01T12:40:46;5.07;;;2.50;;
6135;SDS011;24008;42.664;23.372;2023-02-01T12:43:25;3.23;;;1.93;;
6135;SDS011;24008;42.664;23.372;2023-02-01T12:46:03;5.07;;;1.70;;
6135;SDS011;24008;42.664;23.372;2023-02-01T12:48:35;4.03;;;2.00;;
6135;SDS011;24008;42.664;23.372;2023-02-01T12:51:07;4.67;;;2.07;;
6135;SDS011;24008;42.664;23.372;2023-02-01T12:53:42;3.83;;;2.10;;
6135;SDS011;24008;42.664;23.372;2023-02-01T12:56:15;3.83;;;2.13;;
6135;SDS011;24008;42.664;23.372;2023-02-01T12:58:48;2.87;;;1.70;;
6135;SDS011;24008;42.664;23.372;2023-02-01T13:01:20;5.17;;;2.57;;
6135;SDS011;24008;42.664;23.372;2023-02-01T13:03:54;3.37;;;2.20;;
6135;SDS011;24008;42.664;23.372;2023-02-01T13:06:26;4.87;;;2.43;;
6135;SDS011;24008;42.664;23.372;2023-02-01T13:08:57;3.73;;;2.50;;
6135;SDS011;24008;42.664;23.372;2023-02-01T13:11:33;6.57;;;2.33;;
6135;SDS011;24008;42.664;23.372;2023-02-01T13:14:02;2.87;;;2.00;;
6135;SDS011;24008;42.664;23.372;2023-02-01T13:16:37;4.53;;;2.67;;
6135;SDS011;24008;42.664;23.372;2023-02-01T13:19:10;2.97;;;1.90;;
6135;SDS011;24008;42.664;23.372;2023-02-01T13:21:48;3.43;;;2.57;;
6135;SDS011;24008;42.664;23.372;2023-02-01T13:24:21;3.43;;;2.20;;
6135;SDS011;24008;42.664;23.372;2023-02-01T13:26:59;3.63;;;1.80;;
6135;SDS011;24008;42.664;23.372;2023-02-01T13:29:27;3.70;;;1.87;;
6135;SDS011;24008;42.664;23.372;2023-02-01T13:31:58;2.83;;;2.10;;
6135;SDS011;24008;42.664;23.372;2023-02-01T13:37:53;3.17;;;2.10;;
6135;SDS011;24008;42.664;23.372;2023-02-01T13:40:37;4.03;;;2.17;;
6135;SDS011;24008;42.664;23.372;2023-02-01T13:43:10;7.40;;;2.40;;
6135;SDS011;24008;42.664;23.372;2023-02-01T13:45:45;2.67;;;1.90;;
6135;SDS011;24008;42.664;23.372;2023-02-01T13:48:18;5.33;;;2.00;;
6135;SDS011;24008;42.664;23.372;2023-02-01T13:50:50;4.97;;;2.53;;
6135;SDS011;24008;42.664;23.372;2023-02-01T13:53:21;4.03;;;2.53;;
6135;SDS011;24008;42.664;23.372;2023-02-01T13:55:55;5.97;;;2.80;;
6135;SDS011;24008;42.664;23.372;2023-02-01T13:58:30;6.90;;;2.80;;
6135;SDS011;24008;42.664;23.372;2023-02-01T14:07:15;3.27;;;2.37;;
6135;SDS011;24008;42.664;23.372;2023-02-01T14:09:45;2.67;;;1.90;;
6135;SDS011;24008;42.664;23.372;2023-02-01T14:15:24;4.30;;;2.60;;
6135;SDS011;24008;42.664;23.372;2023-02-01T14:17:52;4.20;;;2.50;;
6135;SDS011;24008;42.664;23.372;2023-02-01T14:23:18;4.13;;;2.40;;
6135;SDS011;24008;42.664;23.372;2023-02-01T14:26:09;3.03;;;2.50;;
6135;SDS011;24008;42.664;23.372;2023-02-01T14:28:46;4.87;;;2.47;;
6135;SDS011;24008;42.664;23.372;2023-02-01T14:31:47;6.70;;;2.70;;
6135;SDS011;24008;42.664;23.372;2023-02-01T14:34:21;4.57;;;2.60;;
6135;SDS011;24008;42.664;23.372;2023-02-01T14:36:54;4.30;;;2.53;;
6135;SDS011;24008;42.664;23.372;2023-02-01T14:39:26;5.23;;;2.23;;
6135;SDS011;24008;42.664;23.372;2023-02-01T14:41:56;4.23;;;2.70;;
6135;SDS011;24008;42.664;23.372;2023-02-01T14:44:27;4.17;;;2.00;;
6135;SDS011;24008;42.664;23.372;2023-02-01T14:47:03;4.60;;;2.40;;
6135;SDS011;24008;42.664;23.372;2023-02-01T14:50:00;3.20;;;2.40;;
6135;SDS011;24008;42.664;23.372;2023-02-01T14:52:44;3.13;;;2.00;;
6135;SDS011;24008;42.664;23.372;2023-02-01T14:55:15;3.37;;;2.40;;
6135;SDS011;24008;42.664;23.372;2023-02-01T14:57:46;5.77;;;2.87;;
6135;SDS011;24008;42.664;23.372;2023-02-01T15:00:17;6.97;;;2.77;;
6135;SDS011;24008;42.664;23.372;2023-02-01T15:02:49;3.63;;;2.80;;
6135;SDS011;24008;42.664;23.372;2023-02-01T15:05:25;5.70;;;2.37;;
6135;SDS011;24008;42.664;23.372;2023-02-01T15:07:56;3.53;;;2.53;;
6135;SDS011;24008;42.664;23.372;2023-02-01T15:10:26;3.90;;;2.53;;
6135;SDS011;24008;42.664;23.372;2023-02-01T15:12:54;10.00;;;4.50;;
6135;SDS011;24008;42.664;23.372;2023-02-01T15:15:21;4.70;;;2.83;;
6135;SDS011;24008;42.664;23.372;2023-02-01T15:17:51;4.27;;;2.37;;
6135;SDS011;24008;42.664;23.372;2023-02-01T15:20:20;5.20;;;2.63;;
6135;SDS011;24008;42.664;23.372;2023-02-01T15:22:52;8.10;;;2.67;;
6135;SDS011;24008;42.664;23.372;2023-02-01T15:25:21;4.07;;;2.40;;
6135;SDS011;24008;42.664;23.372;2023-02-01T15:27:49;6.00;;;4.33;;
6135;SDS011;24008;42.664;23.372;2023-02-01T15:30:17;4.03;;;2.63;;
6135;SDS011;24008;42.664;23.372;2023-02-01T15:32:46;4.20;;;2.80;;
6135;SDS011;24008;42.664;23.372;2023-02-01T15:38:18;4.00;;;2.60;;
6135;SDS011;24008;42.664;23.372;2023-02-01T15:40:56;4.03;;;2.80;;
6135;SDS011;24008;42.664;23.372;2023-02-01T15:43:25;5.17;;;3.33;;